Time;durP1;ratioP1;P1;durP2;ratioP2;P2;SDS_P1;SDS_P2;PMS_P1;PMS_P2;Temp;Humidity;BMP_temperature;BMP_pressure;BME280_temperature;BME280_humidity;BME280_pressure;Samples;Min_cycle;Max_cycle;Signal;HPM_P1;HPM_P2
2022/10/19 00:00:32;;;;;;;6.68;1.62;;;;;;;;;;2301467;58;21043;-77
2022/10/19 00:02:59;;;;;;;6.22;1.10;;;;;;;;;;2300837;58;21048;-77
2022/10/19 00:05:27;;;;;;;5.15;1.15;;;;;;;;;;2300971;58;21097;-77
2022/10/19 00:07:54;;;;;;;8.05;1.27;;;;;;;;;;2300714;58;21121;-77
2022/10/19 00:10:21;;;;;;;4.22;1.30;;;;;;;;;;2301372;58;21062;-78
2022/10/19 00:12:48;;;;;;;8.38;1.65;;;;;;;;;;2301123;58;21162;-77
2022/10/19 00:15:16;;;;;;;7.07;1.08;;;;;;;;;;2301328;58;21063;-77
2022/10/19 00:17:43;;;;;;;8.60;2.00;;;;;;;;;;2300552;58;21130;-78
2022/10/19 00:20:10;;;;;;;4.40;1.10;;;;;;;;;;2301294;58;21553;-77
2022/10/19 00:22:37;;;;;;;4.15;0.93;;;;;;;;;;2300745;58;21125;-77
2022/10/19 00:25:05;;;;;;;5.43;1.17;;;;;;;;;;2537816;54;21549;-77
2022/10/19 00:27:32;;;;;;;9.75;1.48;;;;;;;;;;2301618;58;21106;-77
2022/10/19 00:30:00;;;;;;;5.72;1.50;;;;;;;;;;2301140;58;21130;-77
2022/10/19 00:32:27;;;;;;;7.10;1.62;;;;;;;;;;2299439;58;21051;-77
2022/10/19 00:37:30;;;;;;;6.78;1.35;;;;;;;;;;2336259;57;27810;-78
2022/10/19 00:39:57;;;;;;;6.20;1.50;;;;;;;;;;2347715;57;21113;-77
2022/10/19 00:42:24;;;;;;;4.68;1.70;;;;;;;;;;2347161;57;21053;-78
2022/10/19 00:45:01;;;;;;;9.10;1.20;;;;;;;;;;2357044;56;21047;-78
2022/10/19 00:47:28;;;;;;;3.53;1.45;;;;;;;;;;2374586;56;21047;-78
2022/10/19 00:49:57;;;;;;;4.20;1.40;;;;;;;;;;2374726;56;21023;-77
2022/10/19 00:52:24;;;;;;;4.80;0.93;;;;;;;;;;2373994;56;21069;-78
2022/10/19 00:54:52;;;;;;;5.25;1.25;;;;;;;;;;2375207;56;21035;-78
2022/10/19 00:57:20;;;;;;;5.45;1.12;;;;;;;;;;2375076;56;21114;-77
2022/10/19 00:59:47;;;;;;;4.60;1.40;;;;;;;;;;2374817;56;21612;-78
2022/10/19 01:02:14;;;;;;;6.95;1.10;;;;;;;;;;2374970;56;21446;-77
2022/10/19 01:04:44;;;;;;;5.55;1.37;;;;;;;;;;2374794;56;21027;-78
2022/10/19 01:07:11;;;;;;;2.78;1.17;;;;;;;;;;2374696;56;21600;-78
2022/10/19 01:09:38;;;;;;;6.28;1.60;;;;;;;;;;2374432;56;21533;-78
2022/10/19 01:12:09;;;;;;;3.95;1.12;;;;;;;;;;2374423;56;21055;-78
2022/10/19 01:14:41;;;;;;;6.75;1.30;;;;;;;;;;2375024;56;21122;-78
2022/10/19 01:17:12;;;;;;;4.03;1.33;;;;;;;;;;2374660;56;21138;-78
2022/10/19 01:20:00;;;;;;;8.50;1.42;;;;;;;;;;2375074;56;21031;-78
2022/10/19 01:22:32;;;;;;;6.80;2.92;;;;;;;;;;2374719;56;21636;-78
2022/10/19 01:25:03;;;;;;;5.72;1.23;;;;;;;;;;2373590;56;21621;-78
2022/10/19 01:27:53;;;;;;;5.30;1.17;;;;;;;;;;2375378;56;21589;-78
2022/10/19 01:30:27;;;;;;;7.18;1.60;;;;;;;;;;2374693;56;21402;-78
2022/10/19 01:33:09;;;;;;;8.82;1.55;;;;;;;;;;2375094;56;21126;-78
2022/10/19 01:35:39;;;;;;;3.58;1.33;;;;;;;;;;2628735;52;21596;-78
2022/10/19 01:38:13;;;;;;;4.85;1.20;;;;;;;;;;2374935;56;21110;-78
2022/10/19 01:40:42;;;;;;;5.68;1.20;;;;;;;;;;2374227;56;21051;-78
2022/10/19 01:43:11;;;;;;;7.50;1.25;;;;;;;;;;2375012;56;21039;-77
2022/10/19 01:45:40;;;;;;;5.93;1.05;;;;;;;;;;2374995;56;21043;-78
2022/10/19 01:48:10;;;;;;;4.75;0.90;;;;;;;;;;2374685;56;21027;-78
2022/10/19 01:50:39;;;;;;;3.22;1.12;;;;;;;;;;2373297;56;21672;-78
2022/10/19 01:53:08;;;;;;;7.90;2.85;;;;;;;;;;2374384;56;21098;-77
2022/10/19 01:55:37;;;;;;;8.23;1.25;;;;;;;;;;2627522;52;21537;-78
2022/10/19 01:58:06;;;;;;;3.72;1.23;;;;;;;;;;2373552;56;21026;-78
2022/10/19 02:00:35;;;;;;;6.03;1.17;;;;;;;;;;2373986;56;21107;-78
2022/10/19 02:03:04;;;;;;;3.35;0.80;;;;;;;;;;2373199;56;21547;-78
2022/10/19 02:05:32;;;;;;;7.53;1.50;;;;;;;;;;2373477;56;21051;-78
2022/10/19 02:08:00;;;;;;;7.37;1.40;;;;;;;;;;2374348;56;21027;-78
2022/10/19 02:10:27;;;;;;;6.28;1.20;;;;;;;;;;2374331;56;21114;-78
2022/10/19 02:12:55;;;;;;;5.97;1.17;;;;;;;;;;2373388;56;21532;-78
2022/10/19 02:15:24;;;;;;;2.35;0.82;;;;;;;;;;2373353;56;21051;-78
2022/10/19 02:17:54;;;;;;;6.28;2.08;;;;;;;;;;2373387;56;21046;-78
2022/10/19 02:20:21;;;;;;;8.05;1.15;;;;;;;;;;2371374;56;21059;-78
2022/10/19 02:22:48;;;;;;;6.12;1.48;;;;;;;;;;2373564;56;21605;-78
2022/10/19 02:25:15;;;;;;;8.27;1.37;;;;;;;;;;2373927;56;21119;-78
2022/10/19 02:27:43;;;;;;;4.20;1.37;;;;;;;;;;2374709;56;21055;-77
2022/10/19 02:30:10;;;;;;;7.12;1.30;;;;;;;;;;2374504;56;21557;-77
2022/10/19 02:32:38;;;;;;;7.47;1.75;;;;;;;;;;2373656;56;21530;-77
2022/10/19 02:35:06;;;;;;;4.87;1.10;;;;;;;;;;2372523;56;21059;-77
2022/10/19 02:37:33;;;;;;;6.30;1.25;;;;;;;;;;2373017;56;21976;-78
2022/10/19 02:40:00;;;;;;;4.65;1.12;;;;;;;;;;2374268;56;21557;-78
2022/10/19 02:42:29;;;;;;;3.87;0.98;;;;;;;;;;2373897;56;21118;-77
2022/10/19 02:44:58;;;;;;;8.23;1.50;;;;;;;;;;2373998;56;21047;-77
2022/10/19 02:47:26;;;;;;;3.55;1.00;;;;;;;;;;2373301;56;21051;-78
2022/10/19 02:49:53;;;;;;;5.87;1.17;;;;;;;;;;2373199;56;21152;-78
2022/10/19 02:52:20;;;;;;;8.40;1.55;;;;;;;;;;2372711;56;21598;-78
2022/10/19 02:54:47;;;;;;;6.43;1.58;;;;;;;;;;2373078;56;21043;-78
2022/10/19 02:57:16;;;;;;;3.72;1.05;;;;;;;;;;2373321;56;21054;-77
2022/10/19 02:59:43;;;;;;;4.87;1.42;;;;;;;;;;2374206;56;21549;-77
2022/10/19 03:02:10;;;;;;;5.43;1.10;;;;;;;;;;2373601;56;21632;-77
2022/10/19 03:04:37;;;;;;;3.10;0.90;;;;;;;;;;2374067;56;21062;-77
2022/10/19 03:07:04;;;;;;;10.50;1.65;;;;;;;;;;2372805;56;21063;-77
2022/10/19 03:09:31;;;;;;;7.25;1.75;;;;;;;;;;2374144;56;21118;-78
2022/10/19 03:11:58;;;;;;;7.47;1.33;;;;;;;;;;2374065;56;21059;-78
2022/10/19 03:14:25;;;;;;;7.07;1.42;;;;;;;;;;2374441;56;21047;-78
2022/10/19 03:16:52;;;;;;;4.97;1.25;;;;;;;;;;2373585;56;21098;-77
2022/10/19 03:19:19;;;;;;;3.58;1.40;;;;;;;;;;2374387;56;21059;-78
2022/10/19 03:21:46;;;;;;;6.80;1.75;;;;;;;;;;2626800;52;21035;-78
2022/10/19 03:24:13;;;;;;;4.80;1.08;;;;;;;;;;2373786;56;21337;-78
2022/10/19 03:26:40;;;;;;;3.95;1.10;;;;;;;;;;2373865;56;21106;-78
2022/10/19 03:29:08;;;;;;;6.30;1.30;;;;;;;;;;2373274;56;21027;-78
2022/10/19 03:31:35;;;;;;;4.35;1.10;;;;;;;;;;2372338;56;21046;-78
2022/10/19 03:34:02;;;;;;;3.80;0.90;;;;;;;;;;2373478;56;21098;-78
2022/10/19 03:36:30;;;;;;;5.97;1.30;;;;;;;;;;2627000;52;21046;-78
2022/10/19 03:38:58;;;;;;;8.43;1.65;;;;;;;;;;2626961;52;21546;-78
2022/10/19 03:41:26;;;;;;;9.38;1.92;;;;;;;;;;2372545;56;21541;-78
2022/10/19 03:43:53;;;;;;;4.37;1.30;;;;;;;;;;2374107;56;21102;-78
2022/10/19 03:46:21;;;;;;;3.12;1.65;;;;;;;;;;2374168;56;21569;-78
2022/10/19 03:48:48;;;;;;;9.30;1.55;;;;;;;;;;2373068;56;21023;-78
2022/10/19 03:51:16;;;;;;;4.12;1.20;;;;;;;;;;2373088;56;21043;-78
2022/10/19 03:53:44;;;;;;;8.25;1.75;;;;;;;;;;2372479;56;21589;-78
2022/10/19 03:56:12;;;;;;;7.07;1.48;;;;;;;;;;2373661;56;21054;-78
2022/10/19 03:58:40;;;;;;;7.85;2.65;;;;;;;;;;2372579;56;21624;-78
2022/10/19 04:01:08;;;;;;;5.57;1.12;;;;;;;;;;2373551;56;21027;-78
2022/10/19 04:03:35;;;;;;;3.87;1.10;;;;;;;;;;2626257;52;21054;-78
2022/10/19 04:06:02;;;;;;;8.05;1.58;;;;;;;;;;2373756;56;21051;-78
2022/10/19 04:08:29;;;;;;;7.80;1.30;;;;;;;;;;2627506;52;21025;-78
2022/10/19 04:11:00;;;;;;;4.68;1.42;;;;;;;;;;2372561;56;21130;-78
2022/10/19 04:13:27;;;;;;;4.95;1.25;;;;;;;;;;2373239;56;21058;-77
2022/10/19 04:15:54;;;;;;;5.47;1.30;;;;;;;;;;2371397;56;21054;-78
2022/10/19 04:18:21;;;;;;;8.38;1.37;;;;;;;;;;2374239;56;21578;-77
2022/10/19 04:20:48;;;;;;;6.62;1.25;;;;;;;;;;2374063;56;21043;-78
2022/10/19 04:23:15;;;;;;;6.07;1.42;;;;;;;;;;2626781;52;21089;-78
2022/10/19 04:25:42;;;;;;;8.65;1.37;;;;;;;;;;2373902;56;21620;-78
2022/10/19 04:28:09;;;;;;;10.82;1.50;;;;;;;;;;2373361;56;21050;-78
2022/10/19 04:30:36;;;;;;;4.10;1.48;;;;;;;;;;2372871;56;21043;-78
2022/10/19 04:33:03;;;;;;;6.10;1.60;;;;;;;;;;2372611;56;21090;-78
2022/10/19 04:35:30;;;;;;;6.97;1.40;;;;;;;;;;2373987;56;21329;-78
2022/10/19 04:37:58;;;;;;;4.18;1.30;;;;;;;;;;2373547;56;21062;-78
2022/10/19 04:40:25;;;;;;;4.75;1.20;;;;;;;;;;2373910;56;21137;-78
2022/10/19 04:42:52;;;;;;;3.92;1.23;;;;;;;;;;2626699;52;21035;-78
2022/10/19 04:45:19;;;;;;;5.62;1.60;;;;;;;;;;2429647;54;21543;-74
2022/10/19 04:47:46;;;;;;;7.60;1.00;;;;;;;;;;2300251;58;21149;-74
2022/10/19 04:50:13;;;;;;;9.57;1.60;;;;;;;;;;2301085;58;21185;-76
2022/10/19 04:52:40;;;;;;;5.00;1.25;;;;;;;;;;2300785;58;21078;-76
2022/10/19 04:55:08;;;;;;;5.05;1.15;;;;;;;;;;2299956;58;21114;-76
2022/10/19 04:57:34;;;;;;;7.30;1.55;;;;;;;;;;2299875;58;21074;-73
2022/10/19 05:00:02;;;;;;;4.75;1.08;;;;;;;;;;2299264;58;21071;-74
2022/10/19 05:02:29;;;;;;;6.37;1.58;;;;;;;;;;2299552;58;21062;-74
2022/10/19 05:07:31;;;;;;;6.55;1.45;;;;;;;;;;2411688;52;27775;-74
2022/10/19 05:09:58;;;;;;;5.32;1.17;;;;;;;;;;2346337;57;21421;-74
2022/10/19 05:12:25;;;;;;;4.72;1.37;;;;;;;;;;2346269;57;21046;-74
2022/10/19 05:14:52;;;;;;;5.40;1.62;;;;;;;;;;2354621;56;21537;-74
2022/10/19 05:17:19;;;;;;;7.00;1.80;;;;;;;;;;2371999;56;21035;-74
2022/10/19 05:19:46;;;;;;;4.85;1.15;;;;;;;;;;2373120;56;21039;-74
2022/10/19 05:24:48;;;;;;;7.57;1.90;;;;;;;;;;2323905;57;27896;-73
2022/10/19 05:27:15;;;;;;;5.12;1.50;;;;;;;;;;2343592;57;21058;-74
2022/10/19 05:29:42;;;;;;;9.85;1.35;;;;;;;;;;2344256;57;21632;-76
2022/10/19 05:32:09;;;;;;;7.18;1.33;;;;;;;;;;2344327;57;21502;-78
2022/10/19 05:34:36;;;;;;;4.28;1.55;;;;;;;;;;2381091;53;21591;-76
2022/10/19 05:37:03;;;;;;;4.95;2.10;;;;;;;;;;2343613;57;21046;-74
2022/10/19 05:39:30;;;;;;;8.00;1.37;;;;;;;;;;2343841;57;21113;-74
2022/10/19 05:41:57;;;;;;;10.82;1.95;;;;;;;;;;2345799;57;21049;-76
2022/10/19 05:44:24;;;;;;;6.00;1.42;;;;;;;;;;2346034;57;21133;-76
2022/10/19 05:46:51;;;;;;;8.23;1.48;;;;;;;;;;2345994;57;21053;-76
2022/10/19 05:49:19;;;;;;;8.48;1.42;;;;;;;;;;2345972;57;21200;-76
2022/10/19 05:51:46;;;;;;;14.57;2.30;;;;;;;;;;2345702;57;21130;-76
2022/10/19 05:54:14;;;;;;;4.40;1.23;;;;;;;;;;2346052;57;21101;-75
2022/10/19 05:56:41;;;;;;;7.60;1.20;;;;;;;;;;2345748;57;21402;-76
2022/10/19 05:59:16;;;;;;;4.40;1.23;;;;;;;;;;2346071;57;21121;-74
2022/10/19 06:01:43;;;;;;;8.05;1.42;;;;;;;;;;2346177;57;21065;-74
2022/10/19 06:04:12;;;;;;;5.70;1.40;;;;;;;;;;2346088;57;21105;-76
2022/10/19 06:06:39;;;;;;;10.20;1.33;;;;;;;;;;2346576;57;21113;-76
2022/10/19 06:09:07;;;;;;;6.28;1.70;;;;;;;;;;2345965;57;21651;-75
2022/10/19 06:11:35;;;;;;;8.95;1.92;;;;;;;;;;2345883;57;21038;-76
2022/10/19 06:14:03;;;;;;;5.78;1.50;;;;;;;;;;2345997;57;21583;-76
2022/10/19 06:16:32;;;;;;;6.72;1.50;;;;;;;;;;2346288;57;21706;-76
2022/10/19 06:18:59;;;;;;;9.00;1.80;;;;;;;;;;2345996;57;21181;-75
2022/10/19 06:21:28;;;;;;;7.50;1.83;;;;;;;;;;2346197;57;21121;-75
2022/10/19 06:23:55;;;;;;;7.47;1.40;;;;;;;;;;2346211;57;21122;-76
2022/10/19 06:26:23;;;;;;;7.28;2.10;;;;;;;;;;2346323;57;21303;-76
2022/10/19 06:28:50;;;;;;;7.12;1.67;;;;;;;;;;2345447;57;21088;-74
2022/10/19 06:31:17;;;;;;;5.87;2.12;;;;;;;;;;2346164;57;21037;-75
2022/10/19 06:33:45;;;;;;;10.10;1.80;;;;;;;;;;2345516;57;21037;-74
2022/10/19 06:36:13;;;;;;;7.95;1.50;;;;;;;;;;2345377;57;21046;-75
2022/10/19 06:38:40;;;;;;;7.45;2.03;;;;;;;;;;2344657;57;21042;-75
2022/10/19 06:41:07;;;;;;;13.38;2.03;;;;;;;;;;2345068;57;21093;-75
2022/10/19 06:43:34;;;;;;;9.80;1.83;;;;;;;;;;2345410;57;21541;-76
2022/10/19 06:46:04;;;;;;;9.18;1.67;;;;;;;;;;2344730;57;21117;-76
2022/10/19 06:48:31;;;;;;;13.38;2.20;;;;;;;;;;2344654;57;21524;-76
2022/10/19 06:50:58;;;;;;;5.90;1.50;;;;;;;;;;2344108;57;21062;-76
2022/10/19 06:53:25;;;;;;;10.15;1.60;;;;;;;;;;2344811;57;21587;-75
2022/10/19 06:55:52;;;;;;;8.20;1.45;;;;;;;;;;2344717;57;21062;-76
2022/10/19 06:58:19;;;;;;;12.80;1.98;;;;;;;;;;2344985;57;21097;-75
2022/10/19 07:00:53;;;;;;;8.73;2.10;;;;;;;;;;2344510;57;21046;-76
2022/10/19 07:03:20;;;;;;;4.75;1.60;;;;;;;;;;2343395;57;21046;-75
2022/10/19 07:05:52;;;;;;;10.07;2.10;;;;;;;;;;2417318;53;21081;-74
2022/10/19 07:08:19;;;;;;;11.00;2.08;;;;;;;;;;2344104;57;21042;-76
2022/10/19 07:10:49;;;;;;;13.05;2.17;;;;;;;;;;2344895;57;21125;-75
2022/10/19 07:13:16;;;;;;;10.90;2.22;;;;;;;;;;2344755;57;21050;-74
2022/10/19 07:15:43;;;;;;;7.18;1.90;;;;;;;;;;2345199;57;21304;-76
2022/10/19 07:18:10;;;;;;;12.35;1.90;;;;;;;;;;2344805;57;21109;-76
2022/10/19 07:20:37;;;;;;;15.25;2.20;;;;;;;;;;2344896;57;21026;-76
2022/10/19 07:23:05;;;;;;;12.70;2.20;;;;;;;;;;2344263;57;21137;-76
2022/10/19 07:25:32;;;;;;;11.48;2.15;;;;;;;;;;2344728;57;21532;-76
2022/10/19 07:27:59;;;;;;;6.47;1.95;;;;;;;;;;2345433;57;21113;-76
2022/10/19 07:30:26;;;;;;;13.90;3.20;;;;;;;;;;2345168;57;21580;-76
2022/10/19 07:32:53;;;;;;;6.50;1.92;;;;;;;;;;2342487;57;21062;-75
2022/10/19 07:35:19;;;;;;;6.43;1.52;;;;;;;;;;2342539;57;21113;-75
2022/10/19 07:37:47;;;;;;;9.40;1.42;;;;;;;;;;2343083;57;21666;-74
2022/10/19 07:40:14;;;;;;;7.93;1.85;;;;;;;;;;2342539;57;21050;-75
2022/10/19 07:42:41;;;;;;;6.97;2.17;;;;;;;;;;2344175;57;21026;-76
2022/10/19 07:45:08;;;;;;;10.40;1.92;;;;;;;;;;2344168;57;21052;-74
2022/10/19 07:47:35;;;;;;;10.20;2.05;;;;;;;;;;2344878;57;21121;-75
2022/10/19 07:50:02;;;;;;;15.07;3.50;;;;;;;;;;2345018;57;21049;-74
2022/10/19 07:52:29;;;;;;;10.65;1.92;;;;;;;;;;2344972;57;21121;-74
2022/10/19 07:54:56;;;;;;;11.45;2.12;;;;;;;;;;2345089;57;21046;-76
2022/10/19 07:57:23;;;;;;;10.27;2.15;;;;;;;;;;2345453;57;21097;-75
2022/10/19 07:59:50;;;;;;;12.00;2.83;;;;;;;;;;2344434;57;21042;-76
2022/10/19 08:02:18;;;;;;;10.77;2.60;;;;;;;;;;2345050;57;21045;-76
2022/10/19 08:04:46;;;;;;;6.18;1.85;;;;;;;;;;2343624;57;21082;-76
2022/10/19 08:07:12;;;;;;;6.95;1.42;;;;;;;;;;2344715;57;21029;-76
2022/10/19 08:09:39;;;;;;;9.07;2.47;;;;;;;;;;2343630;57;21093;-76
2022/10/19 08:12:06;;;;;;;13.93;2.83;;;;;;;;;;2343499;57;21497;-74
2022/10/19 08:14:34;;;;;;;7.35;2.25;;;;;;;;;;2343119;57;21941;-75
2022/10/19 08:17:01;;;;;;;14.50;2.15;;;;;;;;;;2343960;57;21129;-74
2022/10/19 08:19:28;;;;;;;25.00;3.22;;;;;;;;;;2344584;57;21045;-76
2022/10/19 08:21:55;;;;;;;11.68;2.72;;;;;;;;;;2343700;57;21065;-76
2022/10/19 08:24:22;;;;;;;9.73;2.12;;;;;;;;;;2342376;57;21046;-75
2022/10/19 08:26:50;;;;;;;9.73;2.65;;;;;;;;;;2342669;57;21714;-75
2022/10/19 08:29:18;;;;;;;12.55;1.98;;;;;;;;;;2343912;57;21045;-74
2022/10/19 08:31:46;;;;;;;10.30;2.20;;;;;;;;;;2343698;57;21643;-74
2022/10/19 08:34:13;;;;;;;7.40;1.87;;;;;;;;;;2343863;57;21045;-75
2022/10/19 08:36:40;;;;;;;11.02;2.45;;;;;;;;;;2345281;57;21044;-76
2022/10/19 08:39:08;;;;;;;7.20;1.58;;;;;;;;;;2345021;57;21108;-75
2022/10/19 08:41:37;;;;;;;14.77;3.15;;;;;;;;;;2344878;57;21045;-74
2022/10/19 08:44:23;;;;;;;12.98;2.25;;;;;;;;;;2344990;57;21034;-74
2022/10/19 08:46:55;;;;;;;13.70;2.70;;;;;;;;;;2344335;57;21058;-74
2022/10/19 08:49:23;;;;;;;8.90;2.58;;;;;;;;;;2344809;57;21396;-76
2022/10/19 08:51:52;;;;;;;10.15;2.42;;;;;;;;;;2345125;57;21165;-76
2022/10/19 08:54:19;;;;;;;11.60;2.00;;;;;;;;;;2345039;57;21113;-76
2022/10/19 08:56:48;;;;;;;10.98;2.05;;;;;;;;;;2345274;57;21053;-75
2022/10/19 08:59:21;;;;;;;11.07;2.75;;;;;;;;;;2344527;57;21063;-74
2022/10/19 09:01:50;;;;;;;10.75;2.22;;;;;;;;;;2345181;57;21121;-75
2022/10/19 09:04:20;;;;;;;13.10;2.70;;;;;;;;;;2344448;57;21548;-76
2022/10/19 09:06:51;;;;;;;9.77;2.30;;;;;;;;;;2345260;57;21623;-76
2022/10/19 09:09:19;;;;;;;7.85;2.25;;;;;;;;;;2344959;57;21053;-74
2022/10/19 09:11:48;;;;;;;9.57;2.33;;;;;;;;;;2344508;57;21042;-76
2022/10/19 09:14:18;;;;;;;5.35;1.83;;;;;;;;;;2345242;57;21117;-74
2022/10/19 09:16:45;;;;;;;11.40;3.00;;;;;;;;;;2401815;53;21093;-76
2022/10/19 09:19:15;;;;;;;12.63;2.17;;;;;;;;;;2345286;57;21037;-76
2022/10/19 09:21:44;;;;;;;5.97;1.83;;;;;;;;;;2344043;57;21615;-76
2022/10/19 09:24:15;;;;;;;8.25;1.95;;;;;;;;;;2345099;57;21121;-75
2022/10/19 09:26:47;;;;;;;7.07;1.90;;;;;;;;;;2344613;57;21184;-76
2022/10/19 09:29:18;;;;;;;7.45;1.98;;;;;;;;;;2345094;57;21093;-76
2022/10/19 09:31:46;;;;;;;10.15;2.05;;;;;;;;;;2360637;53;21054;-76
2022/10/19 09:34:17;;;;;;;7.80;2.15;;;;;;;;;;2351413;53;21149;-76
2022/10/19 09:36:45;;;;;;;7.22;1.80;;;;;;;;;;2344672;57;21085;-75
2022/10/19 09:39:13;;;;;;;7.75;2.55;;;;;;;;;;2344162;57;21097;-74
2022/10/19 09:41:45;;;;;;;11.93;2.75;;;;;;;;;;2345097;57;21034;-76
2022/10/19 09:44:13;;;;;;;8.52;1.60;;;;;;;;;;2345303;57;21057;-76
2022/10/19 09:46:44;;;;;;;5.82;1.75;;;;;;;;;;2344485;57;21113;-74
2022/10/19 09:49:11;;;;;;;7.07;1.85;;;;;;;;;;2345292;57;21117;-74
2022/10/19 09:51:44;;;;;;;4.25;1.55;;;;;;;;;;2344295;57;21053;-74
2022/10/19 09:54:24;;;;;;;10.60;1.98;;;;;;;;;;2345212;57;21062;-74
2022/10/19 09:56:56;;;;;;;9.57;1.73;;;;;;;;;;2343911;57;21030;-74
2022/10/19 09:59:23;;;;;;;6.45;2.10;;;;;;;;;;2345147;57;21525;-74
2022/10/19 10:02:00;;;;;;;5.68;1.52;;;;;;;;;;2344525;57;21121;-74
2022/10/19 10:04:29;;;;;;;8.95;1.70;;;;;;;;;;2344547;57;21130;-74
2022/10/19 10:06:56;;;;;;;5.18;1.50;;;;;;;;;;2349615;53;21109;-73
2022/10/19 10:09:24;;;;;;;6.40;1.60;;;;;;;;;;2345002;57;21060;-74
2022/10/19 10:11:53;;;;;;;4.97;1.90;;;;;;;;;;2344813;57;21105;-73
2022/10/19 10:14:21;;;;;;;8.90;1.48;;;;;;;;;;2344587;57;21030;-74
2022/10/19 10:16:48;;;;;;;4.07;1.27;;;;;;;;;;2345142;57;21038;-74
2022/10/19 10:19:17;;;;;;;5.80;1.27;;;;;;;;;;2345092;57;21029;-73
2022/10/19 10:21:49;;;;;;;3.95;1.23;;;;;;;;;;2344829;57;21124;-74
2022/10/19 10:24:18;;;;;;;4.35;1.48;;;;;;;;;;2344219;57;21094;-74
2022/10/19 10:26:46;;;;;;;4.45;1.20;;;;;;;;;;2345134;57;21587;-74
2022/10/19 10:29:20;;;;;;;10.02;1.75;;;;;;;;;;2343688;57;21050;-77
2022/10/19 10:31:48;;;;;;;5.32;1.40;;;;;;;;;;2344325;56;21109;-74
2022/10/19 10:34:18;;;;;;;5.57;1.50;;;;;;;;;;2343895;57;21109;-74
2022/10/19 10:36:48;;;;;;;6.30;1.40;;;;;;;;;;2344056;57;21042;-73
2022/10/19 10:39:17;;;;;;;6.45;1.30;;;;;;;;;;2344127;57;21136;-74
2022/10/19 10:41:44;;;;;;;5.97;2.20;;;;;;;;;;2342589;57;21459;-74
2022/10/19 10:44:16;;;;;;;9.77;1.65;;;;;;;;;;2344276;57;21101;-74
2022/10/19 10:46:46;;;;;;;6.20;1.67;;;;;;;;;;2551290;52;73292;-79
2022/10/19 10:49:17;;;;;;;5.72;1.33;;;;;;;;;;2608967;53;21076;-80
2022/10/19 10:51:45;;;;;;;5.12;1.20;;;;;;;;;;2607823;53;21131;-79
2022/10/19 10:54:19;;;;;;;4.35;1.45;;;;;;;;;;2609788;53;21049;-82
2022/10/19 10:56:57;;;;;;;8.48;1.10;;;;;;;;;;2612328;53;21074;-78
2022/10/19 10:59:26;;;;;;;5.37;1.85;;;;;;;;;;2613806;53;21042;-79
2022/10/19 11:01:58;;;;;;;4.97;1.77;;;;;;;;;;2362739;57;21077;-81
2022/10/19 11:04:28;;;;;;;3.80;1.20;;;;;;;;;;2612707;53;21042;-80
2022/10/19 11:06:57;;;;;;;4.25;1.48;;;;;;;;;;2363454;57;21084;-81
2022/10/19 11:09:29;;;;;;;2.15;1.05;;;;;;;;;;2364008;57;21084;-81
2022/10/19 11:11:58;;;;;;;8.25;1.58;;;;;;;;;;2363535;57;21176;-80
2022/10/19 11:14:33;;;;;;;4.97;1.23;;;;;;;;;;2614787;53;21041;-80
2022/10/19 11:17:04;;;;;;;5.55;1.52;;;;;;;;;;2614854;53;21194;-80
2022/10/19 11:19:33;;;;;;;7.82;2.03;;;;;;;;;;2615266;53;21029;-80
2022/10/19 11:22:06;;;;;;;4.35;1.10;;;;;;;;;;2364523;57;21041;-80
2022/10/19 11:24:40;;;;;;;3.25;1.25;;;;;;;;;;2364593;57;21132;-80
2022/10/19 11:27:13;;;;;;;2.97;0.90;;;;;;;;;;2364976;57;21061;-80
2022/10/19 11:29:50;;;;;;;1.85;0.80;;;;;;;;;;2365779;57;21763;-80
2022/10/19 11:32:21;;;;;;;2.95;0.85;;;;;;;;;;2617081;53;21045;-80
2022/10/19 11:34:55;;;;;;;5.00;1.30;;;;;;;;;;2364375;57;21156;-81
2022/10/19 11:37:28;;;;;;;2.87;0.95;;;;;;;;;;2363748;57;21643;-80
2022/10/19 11:40:02;;;;;;;1.95;0.93;;;;;;;;;;2616738;53;21597;-82
2022/10/19 11:42:39;;;;;;;1.45;1.10;;;;;;;;;;2364549;57;21766;-81
2022/10/19 11:45:10;;;;;;;6.80;1.08;;;;;;;;;;2614884;53;21041;-82
2022/10/19 11:47:50;;;;;;;2.80;1.17;;;;;;;;;;2615389;53;21025;-82
2022/10/19 11:50:23;;;;;;;2.53;0.90;;;;;;;;;;2364359;57;21077;-81
2022/10/19 11:52:52;;;;;;;2.55;1.12;;;;;;;;;;2363447;57;21064;-81
2022/10/19 11:55:27;;;;;;;2.35;0.88;;;;;;;;;;2364552;57;21029;-82
2022/10/19 11:57:58;;;;;;;5.22;0.90;;;;;;;;;;2364967;57;21049;-82
2022/10/19 12:00:25;;;;;;;2.75;0.90;;;;;;;;;;2365183;57;21034;-82
2022/10/19 12:03:01;;;;;;;4.43;1.27;;;;;;;;;;2362984;57;21049;-82
2022/10/19 12:05:31;;;;;;;3.10;0.95;;;;;;;;;;2614481;53;21117;-82
2022/10/19 12:08:06;;;;;;;3.30;1.25;;;;;;;;;;2363627;57;21029;-82
2022/10/19 12:10:36;;;;;;;1.10;0.80;;;;;;;;;;2364201;57;21064;-81
2022/10/19 12:13:04;;;;;;;6.80;1.58;;;;;;;;;;2365451;57;21100;-82
2022/10/19 12:15:33;;;;;;;4.20;1.10;;;;;;;;;;2615800;53;21456;-82
2022/10/19 12:18:03;;;;;;;3.70;1.10;;;;;;;;;;2363884;57;21088;-82
2022/10/19 12:20:32;;;;;;;3.42;0.98;;;;;;;;;;2616157;53;21115;-82
2022/10/19 12:22:59;;;;;;;3.37;1.05;;;;;;;;;;2614733;53;21108;-82
2022/10/19 12:25:27;;;;;;;3.30;0.80;;;;;;;;;;2363804;57;21558;-80
2022/10/19 12:27:54;;;;;;;1.33;0.70;;;;;;;;;;2363653;57;21077;-82
2022/10/19 12:30:21;;;;;;;2.97;0.65;;;;;;;;;;2616438;53;21061;-83
2022/10/19 12:33:05;;;;;;;3.47;0.60;;;;;;;;;;2364857;57;21117;-81
2022/10/19 12:35:45;;;;;;;3.85;0.70;;;;;;;;;;2363075;57;21041;-81
2022/10/19 12:38:16;;;;;;;1.58;0.77;;;;;;;;;;2614159;53;21025;-81
2022/10/19 12:40:45;;;;;;;2.97;0.90;;;;;;;;;;2613905;53;21113;-81
2022/10/19 12:43:16;;;;;;;1.50;0.60;;;;;;;;;;2614687;53;21069;-81
2022/10/19 12:45:47;;;;;;;1.30;0.73;;;;;;;;;;2367551;56;21117;-81
2022/10/19 12:48:18;;;;;;;2.00;0.75;;;;;;;;;;2397583;56;21169;-81
2022/10/19 12:51:10;;;;;;;2.37;0.75;;;;;;;;;;2656269;52;21033;-81
2022/10/19 12:53:39;;;;;;;1.17;0.60;;;;;;;;;;2386102;56;21034;-81
2022/10/19 12:56:07;;;;;;;1.45;0.62;;;;;;;;;;2655254;52;21670;-81
2022/10/19 12:58:37;;;;;;;1.55;0.70;;;;;;;;;;2395047;56;21138;-81
2022/10/19 13:01:05;;;;;;;1.83;0.70;;;;;;;;;;2397046;56;21105;-81
2022/10/19 13:03:33;;;;;;;2.83;0.70;;;;;;;;;;2655285;52;21058;-81
2022/10/19 13:06:01;;;;;;;1.77;0.80;;;;;;;;;;2398127;56;21182;-81
2022/10/19 13:08:37;;;;;;;1.67;0.47;;;;;;;;;;2398001;56;21061;-81
2022/10/19 13:11:05;;;;;;;1.02;0.60;;;;;;;;;;2398354;56;21038;-81
2022/10/19 13:13:52;;;;;;;1.98;0.70;;;;;;;;;;2656782;52;21086;-81
2022/10/19 13:16:44;;;;;;;2.45;0.90;;;;;;;;;;2656883;52;21613;-81
2022/10/19 13:19:21;;;;;;;3.10;0.80;;;;;;;;;;2616373;51;21058;-81
2022/10/19 13:21:50;;;;;;;2.85;0.60;;;;;;;;;;2398127;56;21114;-81
2022/10/19 13:24:26;;;;;;;1.75;0.77;;;;;;;;;;2398794;56;21103;-81
2022/10/19 13:27:23;;;;;;;2.80;0.62;;;;;;;;;;2397661;56;21090;-81
2022/10/19 13:29:50;;;;;;;0.70;0.50;;;;;;;;;;2398875;56;21116;-81
2022/10/19 13:32:34;;;;;;;1.60;0.52;;;;;;;;;;2398862;56;21046;-81
2022/10/19 13:35:20;;;;;;;0.37;0.37;;;;;;;;;;2398609;56;21595;-82
2022/10/19 13:37:46;;;;;;;0.93;0.50;;;;;;;;;;2398759;56;21062;-81
2022/10/19 13:40:19;;;;;;;1.23;0.50;;;;;;;;;;2398986;56;21038;-81
2022/10/19 13:42:46;;;;;;;0.93;0.40;;;;;;;;;;2656366;52;21030;-81
2022/10/19 13:45:21;;;;;;;0.93;0.43;;;;;;;;;;2657523;52;21743;-82
2022/10/19 13:47:52;;;;;;;0.65;0.57;;;;;;;;;;2398673;56;21042;-82
2022/10/19 13:50:38;;;;;;;0.90;0.37;;;;;;;;;;2398763;56;21109;-81
2022/10/19 13:53:13;;;;;;;0.43;0.43;;;;;;;;;;2657587;52;21121;-81
2022/10/19 13:55:59;;;;;;;3.37;0.45;;;;;;;;;;2657730;52;21042;-81
2022/10/19 13:58:43;;;;;;;1.27;0.55;;;;;;;;;;2398960;56;21054;-81
2022/10/19 14:01:21;;;;;;;0.40;0.40;;;;;;;;;;2397988;56;21181;-82
2022/10/19 14:04:19;;;;;;;0.40;0.22;;;;;;;;;;2398975;56;21038;-82
2022/10/19 14:06:47;;;;;;;0.52;0.43;;;;;;;;;;2336974;56;21077;-81
2022/10/19 14:09:34;;;;;;;0.88;0.40;;;;;;;;;;2657293;52;21161;-80
2022/10/19 14:12:05;;;;;;;0.60;0.37;;;;;;;;;;2655193;52;21038;-81
2022/10/19 14:14:38;;;;;;;1.15;0.70;;;;;;;;;;2656038;52;22143;-81
2022/10/19 14:17:14;;;;;;;1.10;0.52;;;;;;;;;;2654908;52;21042;-81
2022/10/19 14:19:43;;;;;;;0.90;0.43;;;;;;;;;;2655602;52;21047;-81
2022/10/19 14:22:20;;;;;;;0.30;0.30;;;;;;;;;;2656516;52;21110;-81
2022/10/19 14:24:47;;;;;;;0.93;0.50;;;;;;;;;;2397480;56;21084;-81
2022/10/19 14:27:18;;;;;;;1.83;0.40;;;;;;;;;;2398830;56;21605;-81
2022/10/19 14:29:46;;;;;;;1.80;0.43;;;;;;;;;;2657165;52;21098;-81
2022/10/19 14:32:13;;;;;;;0.37;0.37;;;;;;;;;;2655655;52;21079;-82
2022/10/19 14:34:41;;;;;;;1.00;0.40;;;;;;;;;;2657596;52;21039;-82
2022/10/19 14:37:12;;;;;;;1.73;0.50;;;;;;;;;;2398895;56;21042;-81
2022/10/19 14:39:39;;;;;;;2.22;0.40;;;;;;;;;;2399028;56;21054;-82
2022/10/19 14:42:09;;;;;;;1.87;0.52;;;;;;;;;;2655809;52;21035;-81
2022/10/19 14:44:38;;;;;;;0.68;0.50;;;;;;;;;;2396976;56;21034;-81
2022/10/19 14:47:20;;;;;;;0.68;0.50;;;;;;;;;;2656578;52;21062;-82
2022/10/19 14:49:47;;;;;;;0.85;0.37;;;;;;;;;;2398492;56;21097;-80
2022/10/19 14:52:16;;;;;;;1.58;0.43;;;;;;;;;;2398023;56;21145;-82
2022/10/19 14:54:45;;;;;;;2.90;0.40;;;;;;;;;;2397821;56;21054;-82
2022/10/19 14:57:15;;;;;;;2.10;0.50;;;;;;;;;;2398097;56;21526;-82
2022/10/19 14:59:45;;;;;;;2.33;0.60;;;;;;;;;;2397800;56;21085;-80
2022/10/19 15:02:15;;;;;;;1.83;0.50;;;;;;;;;;2397854;56;21125;-81